Flight Track Log - Related Links

Times and Time Zones

All times are in EDT time to prevent confusion due to time zone crossing. See the N373LD flight status page for this flight to view local times or setup timezone preferences in your user account.

Time Position Orientation Groundspeed Altitude Reporting Facility
EDT Latitude Longitude Course Direction KTS MPH feet Rate Location/Type
Wed 03:33:19 PM 46.2622 -106.1839 231° Southwest 149 171 11,600  Level Salt Lake Center
Wed 03:34:21 PM 46.2381 -106.2275 231° Southwest 145 167 13,000 1,258 Climbing Salt Lake Center
Wed 03:35:23 PM 46.2139 -106.2742 233° Southwest 143 165 14,200 1,210 Climbing Salt Lake Center
Wed 03:36:25 PM 46.1828 -106.3233 228° Southwest 137 158 15,500 1,161 Climbing Salt Lake Center
Wed 03:37:27 PM 46.1564 -106.3719 232° Southwest 147 169 16,600 1,306 Climbing Salt Lake Center
Wed 03:38:29 PM 46.1286 -106.4178 229° Southwest 150 173 18,200 1,306 Climbing Salt Lake Center
Wed 03:39:31 PM 46.1014 -106.4631 229° Southwest 148 170 19,300 823 Climbing Salt Lake Center
Wed 03:40:33 PM 46.0722 -106.5125 230° Southwest 157 181 19,900 339 Climbing Salt Lake Center
Wed 03:41:35 PM 46.0383 -106.5708 230° Southwest 178 205 20,000 48 Climbing Salt Lake Center
Wed 03:42:37 PM 45.9939 -106.6467 230° Southwest 200 230 20,000  Level Salt Lake Center
Wed 03:44:00 PM 45.9397 -106.7193 223° Southwest  Level FlightAware Approximate
Wed 03:47:46 PM 45.8158 -106.9436 229° Southwest 181 208 20,000  Level Salt Lake Center
Wed 03:48:48 PM 45.7769 -107.0044 228° Southwest 175 201 20,000  Level Salt Lake Center
Wed 03:49:50 PM 45.7439 -107.0594 229° Southwest 177 204 20,000  Level Salt Lake Center
Wed 03:50:52 PM 45.7100 -107.1164 230° Southwest 182 209 20,000  Level Salt Lake Center
Wed 03:51:00 PM 45.6906 -107.1236 229° Southwest  Level FlightAware Approximate
Wed 03:51:54 PM 45.6767 -107.1761 231° Southwest 190 219 20,000  Level Salt Lake Center
Wed 03:52:00 PM 45.6554 -107.1813 229° Southwest  Level FlightAware Approximate
Wed 03:52:56 PM 45.6419 -107.2308 228° Southwest 187 215 20,000  Level Salt Lake Center
Wed 03:53:00 PM 45.6202 -107.2390 229° Southwest  Level FlightAware Approximate
Wed 03:53:58 PM 45.6081 -107.2892 230° Southwest 190 219 20,000  Level Salt Lake Center
Wed 03:55:00 PM 45.5653 -107.3583 229° Southwest 193 222 20,000  Level Salt Lake Center
Wed 03:56:01 PM 45.5322 -107.4139 230° Southwest 186 214 20,000  Level Salt Lake Center
Wed 03:57:03 PM 45.4997 -107.4672 229° Southwest 180 207 20,000  Level Salt Lake Center
Wed 03:58:05 PM 45.4661 -107.5214 229° Southwest 183 211 20,000  Level Salt Lake Center
Wed 03:59:07 PM 45.4319 -107.5764 228° Southwest 176 203 20,000  Level Salt Lake Center
Wed 04:00:08 PM 45.3964 -107.6350 229° Southwest 183 211 20,000  Level Salt Lake Center
Wed 04:01:10 PM 45.3589 -107.6950 228° Southwest 201 231 20,000  Level Salt Lake Center
Wed 04:02:12 PM 45.3200 -107.7572 228° Southwest 196 226 20,000  Level Salt Lake Center
Wed 04:03:14 PM 45.2881 -107.8089 229° Southwest 180 207 20,000  Level Salt Lake Center
Wed 04:04:15 PM 45.2519 -107.8694 230° Southwest 186 214 20,000  Level Salt Lake Center
Wed 04:05:17 PM 45.2147 -107.9289 228° Southwest 200 230 20,000  Level Salt Lake Center
Wed 04:06:19 PM 45.1803 -107.9847 229° Southwest 192 221 20,000  Level Salt Lake Center
Wed 04:07:21 PM 45.1439 -108.0417 228° Southwest 184 212 20,000  Level Salt Lake Center
Wed 04:08:23 PM 45.1106 -108.0961 229° Southwest 187 215 20,000  Level Salt Lake Center
Wed 04:09:24 PM 45.0747 -108.1569 230° Southwest 191 220 20,000  Level Salt Lake Center
Wed 04:10:26 PM 45.0397 -108.2128 228° Southwest 191 220 20,000  Level Salt Lake Center
Wed 04:11:28 PM 45.0061 -108.2675 229° Southwest 187 215 20,000  Level Salt Lake Center
Wed 04:12:30 PM 44.9717 -108.3217 228° Southwest 187 215 20,000  Level Salt Lake Center
Wed 04:13:31 PM 44.9389 -108.3742 229° Southwest 183 211 20,000  Level Salt Lake Center
Wed 04:14:33 PM 44.9003 -108.4342 228° Southwest 175 201 20,000  Level Salt Lake Center
Wed 04:15:35 PM 44.8667 -108.4878 229° Southwest 180 207 20,000  Level Salt Lake Center
Wed 04:16:37 PM 44.8328 -108.5397 227° Southwest 181 208 20,000 -488 Level Salt Lake Center
Wed 04:17:38 PM 44.7986 -108.5931 228° Southwest 183 211 19,000 -1,268 Descending Salt Lake Center
Wed 04:18:40 PM 44.7508 -108.6381 214° Southwest 201 231 17,400 -1,597 Descending Salt Lake Center
Wed 04:19:42 PM 44.7028 -108.6778 210° Southwest 205 236 15,700 -1,935 Descending Salt Lake Center
Wed 04:20:44 PM 44.6639 -108.7492 233° Southwest 204 235 13,400 -1,902 Descending Salt Lake Center
Wed 04:21:45 PM 44.6344 -108.8144 238° Southwest 202 232 11,800 -1,574 Descending Salt Lake Center
Wed 04:23:00 PM 44.5921 -108.8909 232° Southwest  Level FlightAware Approximate
Wed 04:30:00 PM 44.5167 -109.0167 227° Southwest  Level FlightAware Approximate
Wed 04:31:00 PM 44.5202 -109.0238 227° Southwest  Level Estimated
Wed 04:32:00 PM 44.5167 -109.0167 227° Southwest  Level FlightAware Approximate
Wed 04:33:00 PM 44.5202 -109.0238 227° Southwest  Level Estimated
Wed 04:34:00 PM 44.5167 -109.0167 227° Southwest  Level FlightAware Approximate
Wed 04:35:00 PM 44.5202 -109.0238 227° Southwest  Level Estimated
Wed 04:36:00 PM 44.5167 -109.0167 227° Southwest  Level FlightAware Approximate
Wed 04:37:00 PM 44.5202 -109.0238 227° Southwest  Level Estimated
Wed 04:38:00 PM 44.5167 -109.0167 227° Southwest  Level FlightAware Approximate
Wed 04:39:00 PM 44.5202 -109.0238 227° Southwest  Level Estimated
Wed 04:40:00 PM 44.5167 -109.0167 227° Southwest  Level FlightAware Approximate

Login

Don't have an account? Register now (free) for customized features, flight alerts, and more!